createdAt,value
2022-11-13T00:01:44.867Z,25.37
2022-11-13T00:12:05.753Z,24.10
2022-11-13T00:22:28.925Z,23.03
2022-11-13T00:32:51.865Z,22.47
2022-11-13T00:43:12.916Z,20.67
2022-11-13T00:53:35.898Z,21.40
2022-11-13T01:03:59.221Z,21.80
2022-11-13T01:14:19.854Z,21.20
2022-11-13T01:24:42.927Z,21.03
2022-11-13T01:35:04.957Z,21.37
2022-11-13T01:45:59.696Z,20.83
2022-11-13T01:56:20.545Z,21.60
2022-11-13T02:07:00.787Z,21.70
2022-11-13T02:17:29.551Z,19.90
2022-11-13T02:27:50.949Z,19.13
2022-11-13T02:38:12.017Z,18.77
2022-11-13T02:48:32.490Z,19.80
2022-11-13T02:58:54.147Z,20.27
2022-11-13T03:09:17.099Z,19.03
2022-11-13T03:19:42.783Z,18.87
2022-11-13T03:30:06.621Z,20.20
2022-11-13T03:40:27.303Z,19.53
2022-11-13T03:50:51.640Z,19.23
2022-11-13T04:01:12.046Z,20.57
2022-11-13T04:11:32.587Z,21.90
2022-11-13T04:21:53.322Z,22.00
2022-11-13T04:32:19.247Z,18.87
2022-11-13T04:42:49.324Z,20.23
2022-11-13T04:53:14.999Z,20.87
2022-11-13T05:03:35.905Z,20.93
2022-11-13T05:14:03.175Z,20.03
2022-11-13T05:24:27.232Z,20.43
2022-11-13T05:34:50.471Z,19.63
2022-11-13T05:45:13.377Z,18.33
2022-11-13T05:55:34.236Z,18.50
2022-11-13T06:05:58.558Z,19.77
2022-11-13T06:16:21.802Z,20.10
2022-11-13T06:26:42.674Z,19.13
2022-11-13T06:37:03.470Z,19.77
2022-11-13T06:47:23.968Z,18.90
2022-11-13T06:57:44.547Z,15.33
2022-11-13T07:08:09.562Z,16.63
2022-11-13T07:18:31.488Z,16.47
2022-11-13T07:28:53.418Z,17.27
2022-11-13T07:39:16.499Z,12.97
2022-11-13T07:49:37.311Z,10.33
2022-11-13T07:59:57.880Z,15.00
2022-11-13T08:10:19.598Z,13.13
2022-11-13T08:20:40.508Z,11.63
2022-11-13T08:31:01.941Z,10.97
2022-11-13T08:41:25.147Z,10.10
2022-11-13T08:51:52.779Z,9.20
2022-11-13T09:02:16.405Z,12.47
2022-11-13T09:12:41.504Z,11.37
2022-11-13T09:23:05.692Z,10.70
2022-11-13T09:33:29.091Z,10.47
2022-11-13T09:43:59.264Z,9.53
2022-11-13T09:54:23.372Z,7.60
2022-11-13T10:04:58.578Z,7.20
2022-11-13T10:15:19.885Z,8.10
2022-11-13T10:25:42.485Z,8.40
2022-11-13T10:36:15.224Z,7.77
2022-11-13T10:46:35.782Z,8.70
2022-11-13T10:57:16.511Z,8.60
2022-11-13T11:07:41.407Z,9.60
2022-11-13T11:18:06.119Z,8.47
2022-11-13T11:28:47.686Z,10.07
2022-11-13T11:39:28.111Z,10.67
2022-11-13T11:49:49.666Z,10.37
2022-11-13T12:00:19.820Z,9.47
2022-11-13T12:10:48.021Z,10.60
2022-11-13T12:21:25.073Z,9.30
2022-11-13T12:32:27.707Z,9.90
2022-11-13T12:42:49.281Z,8.90
2022-11-13T12:53:12.136Z,10.43
2022-11-13T13:03:41.708Z,10.83
2022-11-13T13:14:22.013Z,12.30
2022-11-13T13:24:42.597Z,12.83
2022-11-13T13:35:16.006Z,14.27
2022-11-13T13:45:49.087Z,12.25
2022-11-13T13:56:11.821Z,13.27
2022-11-13T14:06:37.457Z,12.90
2022-11-13T14:17:01.059Z,13.70
2022-11-13T14:27:25.583Z,14.20
2022-11-13T14:37:46.432Z,14.97
2022-11-13T14:48:28.231Z,14.23
2022-11-13T14:58:48.801Z,14.05
2022-11-13T15:09:14.180Z,14.40
2022-11-13T15:19:37.872Z,14.37
2022-11-13T15:30:01.494Z,14.93
2022-11-13T15:40:22.347Z,16.53
2022-11-13T15:50:42.827Z,21.53
2022-11-13T16:01:05.662Z,16.47
2022-11-13T16:11:33.017Z,16.17
2022-11-13T16:21:56.348Z,16.47
2022-11-13T16:32:18.991Z,13.10
2022-11-13T16:42:40.709Z,14.40
2022-11-13T16:53:03.738Z,12.93
2022-11-13T17:03:24.459Z,15.60
2022-11-13T17:13:50.008Z,16.40
2022-11-13T17:24:10.528Z,20.47
2022-11-13T17:34:33.745Z,20.67
2022-11-13T17:44:57.128Z,23.23
2022-11-13T17:55:20.302Z,23.53
2022-11-13T18:05:41.237Z,22.60
2022-11-13T18:16:10.793Z,22.17
2022-11-13T18:26:32.194Z,19.80
2022-11-13T18:36:53.862Z,20.67
2022-11-13T18:47:14.383Z,19.13
2022-11-13T18:57:34.804Z,19.37
2022-11-13T19:07:57.936Z,21.80
2022-11-13T19:18:21.115Z,19.90
2022-11-13T19:28:47.183Z,19.10
2022-11-13T19:39:12.564Z,19.30
2022-11-13T19:49:40.812Z,19.07
2022-11-13T20:00:01.369Z,19.67
2022-11-13T20:10:21.953Z,20.33
2022-11-13T20:20:54.640Z,16.57
2022-11-13T20:31:21.170Z,17.10
2022-11-13T20:41:51.109Z,17.33
2022-11-13T20:52:15.661Z,12.20
2022-11-13T21:02:36.530Z,15.07
2022-11-13T21:13:02.279Z,12.63
2022-11-13T21:23:23.145Z,11.73
2022-11-13T21:33:47.175Z,12.40
2022-11-13T21:44:11.158Z,11.13
2022-11-13T21:54:33.762Z,10.10
2022-11-13T22:04:55.634Z,10.50
2022-11-13T22:15:17.018Z,9.63
2022-11-13T22:25:39.930Z,12.40
2022-11-13T22:36:07.447Z,10.53
2022-11-13T22:46:30.232Z,13.27
2022-11-13T22:56:50.922Z,13.70
2022-11-13T23:07:11.807Z,11.87
2022-11-13T23:17:32.294Z,13.73
2022-11-13T23:27:52.936Z,14.20
2022-11-13T23:38:13.478Z,15.17
2022-11-13T23:48:34.704Z,14.03
2022-11-13T23:58:57.418Z,12.40
